sensor_id;sensor_type;location;lat;lon;timestamp;P1;durP1;ratioP1;P2;durP2;ratioP2
14516;SDS011;7344;50.864;4.362;2023-08-08T00:02:06;7.03;;;3.50;;
14516;SDS011;7344;50.864;4.362;2023-08-08T00:04:32;6.57;;;3.20;;
14516;SDS011;7344;50.864;4.362;2023-08-08T00:06:58;6.23;;;3.47;;
14516;SDS011;7344;50.864;4.362;2023-08-08T00:09:24;6.67;;;3.40;;
14516;SDS011;7344;50.864;4.362;2023-08-08T00:11:49;15.50;;;3.77;;
14516;SDS011;7344;50.864;4.362;2023-08-08T00:14:15;5.27;;;3.50;;
14516;SDS011;7344;50.864;4.362;2023-08-08T00:16:41;4.33;;;3.33;;
14516;SDS011;7344;50.864;4.362;2023-08-08T00:19:06;7.33;;;3.97;;
14516;SDS011;7344;50.864;4.362;2023-08-08T00:21:32;8.40;;;3.73;;
14516;SDS011;7344;50.864;4.362;2023-08-08T00:23:58;5.00;;;3.70;;
14516;SDS011;7344;50.864;4.362;2023-08-08T00:26:24;7.07;;;3.50;;
14516;SDS011;7344;50.864;4.362;2023-08-08T00:28:49;8.40;;;3.73;;
14516;SDS011;7344;50.864;4.362;2023-08-08T00:31:15;5.90;;;3.50;;
14516;SDS011;7344;50.864;4.362;2023-08-08T00:33:42;5.40;;;3.40;;
14516;SDS011;7344;50.864;4.362;2023-08-08T00:36:08;8.30;;;3.53;;
14516;SDS011;7344;50.864;4.362;2023-08-08T00:38:34;8.03;;;3.57;;
14516;SDS011;7344;50.864;4.362;2023-08-08T00:40:59;5.10;;;3.80;;
14516;SDS011;7344;50.864;4.362;2023-08-08T00:43:25;4.80;;;3.73;;
14516;SDS011;7344;50.864;4.362;2023-08-08T00:45:50;6.50;;;3.97;;
14516;SDS011;7344;50.864;4.362;2023-08-08T00:48:16;6.63;;;3.90;;
14516;SDS011;7344;50.864;4.362;2023-08-08T00:50:44;7.33;;;4.27;;
14516;SDS011;7344;50.864;4.362;2023-08-08T00:53:10;6.03;;;3.80;;
14516;SDS011;7344;50.864;4.362;2023-08-08T00:55:36;6.93;;;3.80;;
14516;SDS011;7344;50.864;4.362;2023-08-08T00:58:03;8.80;;;4.70;;
14516;SDS011;7344;50.864;4.362;2023-08-08T01:00:29;7.20;;;4.00;;
14516;SDS011;7344;50.864;4.362;2023-08-08T01:02:55;9.47;;;3.93;;
14516;SDS011;7344;50.864;4.362;2023-08-08T01:05:20;10.33;;;4.30;;
14516;SDS011;7344;50.864;4.362;2023-08-08T01:10:25;9.33;;;4.77;;
14516;SDS011;7344;50.864;4.362;2023-08-08T01:13:07;9.13;;;4.40;;
14516;SDS011;7344;50.864;4.362;2023-08-08T01:15:35;10.97;;;4.57;;
14516;SDS011;7344;50.864;4.362;2023-08-08T01:18:06;6.17;;;4.60;;
14516;SDS011;7344;50.864;4.362;2023-08-08T01:20:33;8.37;;;4.57;;
14516;SDS011;7344;50.864;4.362;2023-08-08T01:25:40;11.27;;;5.07;;
14516;SDS011;7344;50.864;4.362;2023-08-08T01:28:06;9.90;;;5.17;;
14516;SDS011;7344;50.864;4.362;2023-08-08T01:30:33;9.07;;;4.93;;
14516;SDS011;7344;50.864;4.362;2023-08-08T01:32:58;8.10;;;4.87;;
14516;SDS011;7344;50.864;4.362;2023-08-08T01:35:25;9.93;;;4.83;;
14516;SDS011;7344;50.864;4.362;2023-08-08T01:37:59;11.40;;;5.20;;
14516;SDS011;7344;50.864;4.362;2023-08-08T01:40:30;9.10;;;5.00;;
14516;SDS011;7344;50.864;4.362;2023-08-08T01:42:56;8.30;;;5.17;;
14516;SDS011;7344;50.864;4.362;2023-08-08T01:45:23;8.80;;;4.97;;
14516;SDS011;7344;50.864;4.362;2023-08-08T01:47:50;17.57;;;5.10;;
14516;SDS011;7344;50.864;4.362;2023-08-08T01:50:16;9.57;;;5.00;;
14516;SDS011;7344;50.864;4.362;2023-08-08T01:52:42;10.37;;;4.83;;
14516;SDS011;7344;50.864;4.362;2023-08-08T01:55:08;9.13;;;4.90;;
14516;SDS011;7344;50.864;4.362;2023-08-08T01:57:34;10.87;;;5.07;;
14516;SDS011;7344;50.864;4.362;2023-08-08T02:00:00;11.57;;;5.07;;
14516;SDS011;7344;50.864;4.362;2023-08-08T02:02:25;11.10;;;5.30;;
14516;SDS011;7344;50.864;4.362;2023-08-08T02:04:52;10.03;;;4.97;;
14516;SDS011;7344;50.864;4.362;2023-08-08T02:07:17;14.57;;;5.10;;
14516;SDS011;7344;50.864;4.362;2023-08-08T02:09:43;9.10;;;5.20;;
14516;SDS011;7344;50.864;4.362;2023-08-08T02:12:10;12.13;;;4.90;;
14516;SDS011;7344;50.864;4.362;2023-08-08T02:14:36;11.33;;;5.20;;
14516;SDS011;7344;50.864;4.362;2023-08-08T02:17:02;9.73;;;5.17;;
14516;SDS011;7344;50.864;4.362;2023-08-08T02:19:28;14.47;;;5.37;;
14516;SDS011;7344;50.864;4.362;2023-08-08T02:21:54;12.97;;;5.20;;
14516;SDS011;7344;50.864;4.362;2023-08-08T02:24:20;10.43;;;5.40;;
14516;SDS011;7344;50.864;4.362;2023-08-08T02:26:45;9.03;;;4.67;;
14516;SDS011;7344;50.864;4.362;2023-08-08T02:29:11;10.33;;;5.10;;
14516;SDS011;7344;50.864;4.362;2023-08-08T02:31:36;10.13;;;6.10;;
14516;SDS011;7344;50.864;4.362;2023-08-08T02:34:02;6.37;;;5.13;;
14516;SDS011;7344;50.864;4.362;2023-08-08T02:36:28;10.27;;;5.57;;
14516;SDS011;7344;50.864;4.362;2023-08-08T02:38:53;13.00;;;5.17;;
14516;SDS011;7344;50.864;4.362;2023-08-08T02:41:19;8.07;;;4.70;;
14516;SDS011;7344;50.864;4.362;2023-08-08T02:43:45;11.63;;;5.60;;
14516;SDS011;7344;50.864;4.362;2023-08-08T02:46:11;11.67;;;5.13;;
14516;SDS011;7344;50.864;4.362;2023-08-08T02:48:37;15.40;;;5.97;;
14516;SDS011;7344;50.864;4.362;2023-08-08T02:51:02;13.33;;;5.20;;
14516;SDS011;7344;50.864;4.362;2023-08-08T02:53:28;10.00;;;5.53;;
14516;SDS011;7344;50.864;4.362;2023-08-08T02:55:53;13.77;;;5.93;;
14516;SDS011;7344;50.864;4.362;2023-08-08T02:58:19;11.83;;;5.33;;
14516;SDS011;7344;50.864;4.362;2023-08-08T03:00:45;9.07;;;5.30;;
14516;SDS011;7344;50.864;4.362;2023-08-08T03:03:10;16.60;;;6.00;;
14516;SDS011;7344;50.864;4.362;2023-08-08T03:05:36;14.97;;;5.60;;
14516;SDS011;7344;50.864;4.362;2023-08-08T03:08:01;10.30;;;5.17;;
14516;SDS011;7344;50.864;4.362;2023-08-08T03:10:27;13.97;;;5.67;;
14516;SDS011;7344;50.864;4.362;2023-08-08T03:12:53;9.30;;;5.90;;
14516;SDS011;7344;50.864;4.362;2023-08-08T03:15:18;11.67;;;5.40;;
14516;SDS011;7344;50.864;4.362;2023-08-08T03:17:44;18.27;;;6.23;;
14516;SDS011;7344;50.864;4.362;2023-08-08T03:20:10;18.00;;;6.13;;
14516;SDS011;7344;50.864;4.362;2023-08-08T03:22:36;17.47;;;6.30;;
14516;SDS011;7344;50.864;4.362;2023-08-08T03:25:02;12.47;;;6.23;;
14516;SDS011;7344;50.864;4.362;2023-08-08T03:27:29;14.70;;;6.13;;
14516;SDS011;7344;50.864;4.362;2023-08-08T03:29:55;16.20;;;6.50;;
14516;SDS011;7344;50.864;4.362;2023-08-08T03:32:21;16.73;;;6.60;;
14516;SDS011;7344;50.864;4.362;2023-08-08T03:34:47;15.83;;;6.37;;
14516;SDS011;7344;50.864;4.362;2023-08-08T03:37:13;13.23;;;7.00;;
14516;SDS011;7344;50.864;4.362;2023-08-08T03:39:39;17.97;;;6.73;;
14516;SDS011;7344;50.864;4.362;2023-08-08T03:42:04;9.93;;;6.40;;
14516;SDS011;7344;50.864;4.362;2023-08-08T03:44:30;13.80;;;6.17;;
14516;SDS011;7344;50.864;4.362;2023-08-08T03:46:56;13.73;;;6.43;;
14516;SDS011;7344;50.864;4.362;2023-08-08T03:49:21;16.50;;;7.13;;
14516;SDS011;7344;50.864;4.362;2023-08-08T03:51:47;13.97;;;6.60;;
14516;SDS011;7344;50.864;4.362;2023-08-08T03:54:13;14.43;;;6.90;;
14516;SDS011;7344;50.864;4.362;2023-08-08T03:56:40;12.80;;;6.70;;
14516;SDS011;7344;50.864;4.362;2023-08-08T03:59:06;13.00;;;6.30;;
14516;SDS011;7344;50.864;4.362;2023-08-08T04:01:31;13.23;;;6.93;;
14516;SDS011;7344;50.864;4.362;2023-08-08T04:03:57;11.10;;;6.67;;
14516;SDS011;7344;50.864;4.362;2023-08-08T04:06:23;17.33;;;6.80;;
14516;SDS011;7344;50.864;4.362;2023-08-08T04:08:49;12.80;;;7.17;;
14516;SDS011;7344;50.864;4.362;2023-08-08T04:11:14;14.17;;;7.17;;
14516;SDS011;7344;50.864;4.362;2023-08-08T04:13:40;18.30;;;7.10;;
14516;SDS011;7344;50.864;4.362;2023-08-08T04:16:05;20.83;;;7.43;;
14516;SDS011;7344;50.864;4.362;2023-08-08T04:18:31;10.23;;;6.47;;
14516;SDS011;7344;50.864;4.362;2023-08-08T04:20:57;18.03;;;7.53;;
14516;SDS011;7344;50.864;4.362;2023-08-08T04:23:22;14.33;;;7.60;;
14516;SDS011;7344;50.864;4.362;2023-08-08T04:25:50;15.90;;;7.50;;
14516;SDS011;7344;50.864;4.362;2023-08-08T04:28:19;18.00;;;7.53;;
14516;SDS011;7344;50.864;4.362;2023-08-08T04:30:44;16.80;;;7.37;;
14516;SDS011;7344;50.864;4.362;2023-08-08T04:33:10;15.60;;;7.23;;
14516;SDS011;7344;50.864;4.362;2023-08-08T04:35:36;15.37;;;7.83;;
14516;SDS011;7344;50.864;4.362;2023-08-08T04:38:01;14.60;;;7.23;;
14516;SDS011;7344;50.864;4.362;2023-08-08T04:40:27;16.53;;;7.47;;
14516;SDS011;7344;50.864;4.362;2023-08-08T04:42:52;15.80;;;6.50;;
14516;SDS011;7344;50.864;4.362;2023-08-08T04:45:18;14.43;;;6.60;;
14516;SDS011;7344;50.864;4.362;2023-08-08T04:47:45;16.33;;;8.50;;
14516;SDS011;7344;50.864;4.362;2023-08-08T04:50:11;15.53;;;9.13;;
14516;SDS011;7344;50.864;4.362;2023-08-08T04:52:37;15.10;;;9.40;;
14516;SDS011;7344;50.864;4.362;2023-08-08T04:55:03;22.27;;;10.37;;
14516;SDS011;7344;50.864;4.362;2023-08-08T04:57:30;20.20;;;9.80;;
14516;SDS011;7344;50.864;4.362;2023-08-08T04:59:56;18.80;;;8.50;;
14516;SDS011;7344;50.864;4.362;2023-08-08T05:02:21;24.90;;;8.67;;
14516;SDS011;7344;50.864;4.362;2023-08-08T05:04:47;11.93;;;7.03;;
14516;SDS011;7344;50.864;4.362;2023-08-08T05:07:13;13.60;;;5.67;;
14516;SDS011;7344;50.864;4.362;2023-08-08T05:09:39;9.93;;;5.13;;
14516;SDS011;7344;50.864;4.362;2023-08-08T05:12:05;16.63;;;5.03;;
14516;SDS011;7344;50.864;4.362;2023-08-08T05:14:31;10.57;;;4.53;;
14516;SDS011;7344;50.864;4.362;2023-08-08T05:16:56;10.40;;;4.23;;
14516;SDS011;7344;50.864;4.362;2023-08-08T05:19:22;9.53;;;4.37;;
14516;SDS011;7344;50.864;4.362;2023-08-08T05:21:49;9.40;;;4.37;;
14516;SDS011;7344;50.864;4.362;2023-08-08T05:24:15;10.33;;;4.20;;
14516;SDS011;7344;50.864;4.362;2023-08-08T05:26:40;11.70;;;4.80;;
14516;SDS011;7344;50.864;4.362;2023-08-08T05:29:06;11.87;;;4.13;;
14516;SDS011;7344;50.864;4.362;2023-08-08T05:31:31;8.57;;;4.35;;
14516;SDS011;7344;50.864;4.362;2023-08-08T05:33:57;10.63;;;4.03;;
14516;SDS011;7344;50.864;4.362;2023-08-08T05:36:22;10.18;;;3.85;;
14516;SDS011;7344;50.864;4.362;2023-08-08T05:38:48;11.98;;;3.97;;
14516;SDS011;7344;50.864;4.362;2023-08-08T05:41:14;11.50;;;4.00;;
14516;SDS011;7344;50.864;4.362;2023-08-08T05:43:39;9.05;;;3.90;;
14516;SDS011;7344;50.864;4.362;2023-08-08T05:46:05;12.40;;;4.10;;
14516;SDS011;7344;50.864;4.362;2023-08-08T05:48:31;11.73;;;4.15;;
14516;SDS011;7344;50.864;4.362;2023-08-08T05:50:56;10.13;;;3.65;;
14516;SDS011;7344;50.864;4.362;2023-08-08T05:53:24;10.98;;;3.75;;
14516;SDS011;7344;50.864;4.362;2023-08-08T05:55:49;10.77;;;3.72;;
14516;SDS011;7344;50.864;4.362;2023-08-08T05:58:15;10.32;;;4.20;;
14516;SDS011;7344;50.864;4.362;2023-08-08T06:00:40;8.70;;;3.90;;
14516;SDS011;7344;50.864;4.362;2023-08-08T06:03:07;10.02;;;3.90;;
14516;SDS011;7344;50.864;4.362;2023-08-08T06:05:33;11.23;;;3.55;;
14516;SDS011;7344;50.864;4.362;2023-08-08T06:07:59;13.35;;;4.68;;
14516;SDS011;7344;50.864;4.362;2023-08-08T06:10:24;15.30;;;4.07;;
14516;SDS011;7344;50.864;4.362;2023-08-08T06:12:50;9.07;;;3.80;;
14516;SDS011;7344;50.864;4.362;2023-08-08T06:15:16;8.90;;;3.60;;
14516;SDS011;7344;50.864;4.362;2023-08-08T06:17:41;9.52;;;3.72;;
14516;SDS011;7344;50.864;4.362;2023-08-08T06:20:07;13.35;;;3.60;;
14516;SDS011;7344;50.864;4.362;2023-08-08T06:22:34;11.05;;;4.00;;
14516;SDS011;7344;50.864;4.362;2023-08-08T06:25:00;9.02;;;3.67;;
14516;SDS011;7344;50.864;4.362;2023-08-08T06:27:25;10.88;;;4.20;;
14516;SDS011;7344;50.864;4.362;2023-08-08T06:29:51;8.65;;;3.70;;
14516;SDS011;7344;50.864;4.362;2023-08-08T06:32:17;9.93;;;3.50;;
14516;SDS011;7344;50.864;4.362;2023-08-08T06:34:42;11.18;;;3.75;;
14516;SDS011;7344;50.864;4.362;2023-08-08T06:37:08;11.68;;;3.78;;
14516;SDS011;7344;50.864;4.362;2023-08-08T06:39:34;11.00;;;3.60;;
14516;SDS011;7344;50.864;4.362;2023-08-08T06:42:00;10.32;;;3.22;;
14516;SDS011;7344;50.864;4.362;2023-08-08T06:44:25;9.88;;;3.60;;
14516;SDS011;7344;50.864;4.362;2023-08-08T06:46:51;11.30;;;3.35;;
14516;SDS011;7344;50.864;4.362;2023-08-08T06:49:16;12.77;;;3.75;;
14516;SDS011;7344;50.864;4.362;2023-08-08T06:51:42;6.80;;;3.17;;
14516;SDS011;7344;50.864;4.362;2023-08-08T06:54:08;7.03;;;3.45;;
14516;SDS011;7344;50.864;4.362;2023-08-08T06:56:33;8.27;;;3.20;;
14516;SDS011;7344;50.864;4.362;2023-08-08T06:58:59;7.53;;;3.33;;
14516;SDS011;7344;50.864;4.362;2023-08-08T07:01:24;8.57;;;3.20;;
14516;SDS011;7344;50.864;4.362;2023-08-08T07:03:50;9.45;;;3.15;;
14516;SDS011;7344;50.864;4.362;2023-08-08T07:06:19;13.55;;;4.20;;
14516;SDS011;7344;50.864;4.362;2023-08-08T07:08:44;9.20;;;3.25;;
14516;SDS011;7344;50.864;4.362;2023-08-08T07:11:10;9.63;;;3.47;;
14516;SDS011;7344;50.864;4.362;2023-08-08T07:13:35;7.05;;;3.13;;
14516;SDS011;7344;50.864;4.362;2023-08-08T07:16:01;8.32;;;3.33;;
14516;SDS011;7344;50.864;4.362;2023-08-08T07:18:27;9.75;;;4.65;;
14516;SDS011;7344;50.864;4.362;2023-08-08T07:20:53;9.77;;;3.28;;
14516;SDS011;7344;50.864;4.362;2023-08-08T07:23:18;10.63;;;3.00;;
14516;SDS011;7344;50.864;4.362;2023-08-08T07:25:47;11.27;;;3.38;;
14516;SDS011;7344;50.864;4.362;2023-08-08T07:28:12;8.73;;;3.40;;
14516;SDS011;7344;50.864;4.362;2023-08-08T07:30:39;10.40;;;3.88;;
14516;SDS011;7344;50.864;4.362;2023-08-08T07:33:06;9.02;;;3.60;;
14516;SDS011;7344;50.864;4.362;2023-08-08T07:35:35;10.40;;;3.67;;
14516;SDS011;7344;50.864;4.362;2023-08-08T07:38:00;10.02;;;3.78;;
14516;SDS011;7344;50.864;4.362;2023-08-08T07:40:27;8.60;;;3.78;;
14516;SDS011;7344;50.864;4.362;2023-08-08T07:42:53;8.32;;;3.60;;
14516;SDS011;7344;50.864;4.362;2023-08-08T07:45:19;9.13;;;3.63;;
14516;SDS011;7344;50.864;4.362;2023-08-08T07:47:44;9.20;;;3.80;;
14516;SDS011;7344;50.864;4.362;2023-08-08T07:50:10;6.88;;;4.00;;
14516;SDS011;7344;50.864;4.362;2023-08-08T07:52:36;12.55;;;3.80;;
14516;SDS011;7344;50.864;4.362;2023-08-08T07:55:03;8.50;;;3.90;;
14516;SDS011;7344;50.864;4.362;2023-08-08T07:57:29;8.57;;;3.80;;
14516;SDS011;7344;50.864;4.362;2023-08-08T07:59:56;14.82;;;4.32;;
14516;SDS011;7344;50.864;4.362;2023-08-08T08:02:22;10.38;;;4.22;;
14516;SDS011;7344;50.864;4.362;2023-08-08T08:04:48;10.77;;;4.15;;
14516;SDS011;7344;50.864;4.362;2023-08-08T08:07:13;9.80;;;4.13;;
14516;SDS011;7344;50.864;4.362;2023-08-08T08:09:39;15.35;;;4.22;;
14516;SDS011;7344;50.864;4.362;2023-08-08T08:12:07;10.27;;;4.10;;
14516;SDS011;7344;50.864;4.362;2023-08-08T08:14:33;11.63;;;4.05;;
14516;SDS011;7344;50.864;4.362;2023-08-08T08:16:59;10.52;;;4.78;;
14516;SDS011;7344;50.864;4.362;2023-08-08T08:19:25;7.63;;;3.92;;
14516;SDS011;7344;50.864;4.362;2023-08-08T08:21:50;8.52;;;4.10;;
14516;SDS011;7344;50.864;4.362;2023-08-08T08:24:16;13.93;;;4.50;;
14516;SDS011;7344;50.864;4.362;2023-08-08T08:26:41;11.57;;;4.10;;
14516;SDS011;7344;50.864;4.362;2023-08-08T08:29:07;10.25;;;4.10;;
14516;SDS011;7344;50.864;4.362;2023-08-08T08:31:33;6.65;;;3.67;;
14516;SDS011;7344;50.864;4.362;2023-08-08T08:33:58;10.98;;;4.00;;
14516;SDS011;7344;50.864;4.362;2023-08-08T08:36:24;9.25;;;4.13;;
14516;SDS011;7344;50.864;4.362;2023-08-08T08:38:51;5.80;;;3.20;;
14516;SDS011;7344;50.864;4.362;2023-08-08T08:41:17;9.75;;;3.70;;
14516;SDS011;7344;50.864;4.362;2023-08-08T08:43:45;10.02;;;3.70;;
14516;SDS011;7344;50.864;4.362;2023-08-08T08:46:11;8.13;;;3.40;;
14516;SDS011;7344;50.864;4.362;2023-08-08T08:48:39;11.32;;;3.75;;
14516;SDS011;7344;50.864;4.362;2023-08-08T08:51:06;9.25;;;3.70;;
14516;SDS011;7344;50.864;4.362;2023-08-08T08:53:32;8.70;;;3.40;;
14516;SDS011;7344;50.864;4.362;2023-08-08T08:55:59;8.27;;;3.33;;
14516;SDS011;7344;50.864;4.362;2023-08-08T08:58:26;5.38;;;2.90;;
14516;SDS011;7344;50.864;4.362;2023-08-08T09:00:53;11.77;;;3.45;;
14516;SDS011;7344;50.864;4.362;2023-08-08T09:03:19;11.20;;;4.10;;
14516;SDS011;7344;50.864;4.362;2023-08-08T09:05:45;7.75;;;3.25;;
14516;SDS011;7344;50.864;4.362;2023-08-08T09:08:13;6.35;;;3.20;;
14516;SDS011;7344;50.864;4.362;2023-08-08T09:10:40;7.35;;;3.13;;
14516;SDS011;7344;50.864;4.362;2023-08-08T09:13:06;8.15;;;3.00;;
14516;SDS011;7344;50.864;4.362;2023-08-08T09:15:32;11.70;;;3.13;;
14516;SDS011;7344;50.864;4.362;2023-08-08T09:17:59;9.90;;;3.10;;
14516;SDS011;7344;50.864;4.362;2023-08-08T09:20:26;8.15;;;3.17;;
14516;SDS011;7344;50.864;4.362;2023-08-08T09:22:55;6.35;;;3.03;;
14516;SDS011;7344;50.864;4.362;2023-08-08T09:25:21;7.47;;;3.38;;
14516;SDS011;7344;50.864;4.362;2023-08-08T09:27:47;8.10;;;2.85;;
14516;SDS011;7344;50.864;4.362;2023-08-08T09:30:12;5.07;;;3.13;;
14516;SDS011;7344;50.864;4.362;2023-08-08T09:32:39;8.73;;;2.80;;
14516;SDS011;7344;50.864;4.362;2023-08-08T09:35:05;7.78;;;2.50;;
14516;SDS011;7344;50.864;4.362;2023-08-08T09:37:34;6.13;;;2.65;;
14516;SDS011;7344;50.864;4.362;2023-08-08T09:40:01;5.07;;;2.50;;
14516;SDS011;7344;50.864;4.362;2023-08-08T09:42:33;6.93;;;2.50;;
14516;SDS011;7344;50.864;4.362;2023-08-08T09:45:00;6.28;;;2.30;;
14516;SDS011;7344;50.864;4.362;2023-08-08T09:47:27;7.50;;;2.85;;
14516;SDS011;7344;50.864;4.362;2023-08-08T09:50:02;4.80;;;2.67;;
14516;SDS011;7344;50.864;4.362;2023-08-08T09:52:32;6.25;;;2.78;;
14516;SDS011;7344;50.864;4.362;2023-08-08T09:54:59;6.97;;;2.58;;
14516;SDS011;7344;50.864;4.362;2023-08-08T09:57:25;4.40;;;2.17;;
14516;SDS011;7344;50.864;4.362;2023-08-08T09:59:51;6.35;;;2.92;;
14516;SDS011;7344;50.864;4.362;2023-08-08T10:02:17;5.20;;;2.53;;
14516;SDS011;7344;50.864;4.362;2023-08-08T10:04:45;7.82;;;2.70;;
14516;SDS011;7344;50.864;4.362;2023-08-08T10:07:11;8.90;;;2.50;;
14516;SDS011;7344;50.864;4.362;2023-08-08T10:09:37;5.07;;;2.60;;
14516;SDS011;7344;50.864;4.362;2023-08-08T10:12:06;4.63;;;2.42;;
14516;SDS011;7344;50.864;4.362;2023-08-08T10:14:34;4.22;;;2.42;;
14516;SDS011;7344;50.864;4.362;2023-08-08T10:17:03;6.47;;;2.65;;
14516;SDS011;7344;50.864;4.362;2023-08-08T10:19:29;6.68;;;2.78;;
14516;SDS011;7344;50.864;4.362;2023-08-08T10:21:58;5.55;;;2.50;;
14516;SDS011;7344;50.864;4.362;2023-08-08T10:24:32;5.15;;;2.20;;
14516;SDS011;7344;50.864;4.362;2023-08-08T10:27:00;3.80;;;2.20;;
14516;SDS011;7344;50.864;4.362;2023-08-08T10:29:27;3.53;;;2.40;;
14516;SDS011;7344;50.864;4.362;2023-08-08T10:31:58;5.97;;;2.05;;
14516;SDS011;7344;50.864;4.362;2023-08-08T10:34:41;4.93;;;2.10;;
14516;SDS011;7344;50.864;4.362;2023-08-08T10:37:11;3.03;;;2.20;;
14516;SDS011;7344;50.864;4.362;2023-08-08T10:39:52;3.03;;;2.25;;
14516;SDS011;7344;50.864;4.362;2023-08-08T10:42:26;3.30;;;1.90;;
14516;SDS011;7344;50.864;4.362;2023-08-08T10:44:56;3.65;;;2.05;;
14516;SDS011;7344;50.864;4.362;2023-08-08T10:47:23;2.45;;;1.90;;
14516;SDS011;7344;50.864;4.362;2023-08-08T10:49:57;4.80;;;1.92;;
14516;SDS011;7344;50.864;4.362;2023-08-08T10:57:56;3.58;;;2.00;;
14516;SDS011;7344;50.864;4.362;2023-08-08T11:00:31;4.53;;;1.90;;
14516;SDS011;7344;50.864;4.362;2023-08-08T11:02:59;3.35;;;2.13;;
14516;SDS011;7344;50.864;4.362;2023-08-08T11:05:28;4.32;;;2.15;;
14516;SDS011;7344;50.864;4.362;2023-08-08T11:07:55;4.18;;;2.10;;
14516;SDS011;7344;50.864;4.362;2023-08-08T11:10:22;2.90;;;2.13;;
14516;SDS011;7344;50.864;4.362;2023-08-08T11:13:01;4.20;;;1.90;;
14516;SDS011;7344;50.864;4.362;2023-08-08T11:15:28;2.83;;;1.83;;
14516;SDS011;7344;50.864;4.362;2023-08-08T11:17:55;2.38;;;2.05;;
14516;SDS011;7344;50.864;4.362;2023-08-08T11:20:22;4.32;;;1.88;;
14516;SDS011;7344;50.864;4.362;2023-08-08T11:22:54;4.10;;;2.00;;
14516;SDS011;7344;50.864;4.362;2023-08-08T11:25:21;4.07;;;1.88;;
14516;SDS011;7344;50.864;4.362;2023-08-08T11:27:50;4.47;;;1.98;;
14516;SDS011;7344;50.864;4.362;2023-08-08T11:30:17;2.03;;;1.83;;
14516;SDS011;7344;50.864;4.362;2023-08-08T11:32:45;4.93;;;1.77;;
14516;SDS011;7344;50.864;4.362;2023-08-08T11:35:12;1.80;;;1.38;;
14516;SDS011;7344;50.864;4.362;2023-08-08T11:37:40;3.25;;;1.67;;
14516;SDS011;7344;50.864;4.362;2023-08-08T11:40:06;2.22;;;1.52;;
14516;SDS011;7344;50.864;4.362;2023-08-08T11:42:33;1.80;;;1.33;;
14516;SDS011;7344;50.864;4.362;2023-08-08T11:44:59;2.25;;;1.70;;
14516;SDS011;7344;50.864;4.362;2023-08-08T11:47:25;3.13;;;1.58;;
14516;SDS011;7344;50.864;4.362;2023-08-08T11:49:51;2.70;;;1.58;;
14516;SDS011;7344;50.864;4.362;2023-08-08T11:52:18;4.25;;;1.70;;
14516;SDS011;7344;50.864;4.362;2023-08-08T11:54:44;3.75;;;1.83;;
14516;SDS011;7344;50.864;4.362;2023-08-08T11:57:15;3.17;;;1.70;;
14516;SDS011;7344;50.864;4.362;2023-08-08T11:59:41;4.15;;;1.90;;
14516;SDS011;7344;50.864;4.362;2023-08-08T12:02:07;3.47;;;1.65;;
14516;SDS011;7344;50.864;4.362;2023-08-08T12:04:34;3.38;;;1.80;;
14516;SDS011;7344;50.864;4.362;2023-08-08T12:07:00;2.80;;;1.63;;
14516;SDS011;7344;50.864;4.362;2023-08-08T12:09:29;3.20;;;1.80;;
14516;SDS011;7344;50.864;4.362;2023-08-08T12:12:01;2.30;;;1.98;;
14516;SDS011;7344;50.864;4.362;2023-08-08T12:14:27;3.20;;;1.52;;
14516;SDS011;7344;50.864;4.362;2023-08-08T12:16:53;1.90;;;1.40;;
14516;SDS011;7344;50.864;4.362;2023-08-08T12:19:22;3.55;;;1.73;;
14516;SDS011;7344;50.864;4.362;2023-08-08T12:21:49;2.28;;;1.58;;
14516;SDS011;7344;50.864;4.362;2023-08-08T12:24:16;3.42;;;1.83;;
14516;SDS011;7344;50.864;4.362;2023-08-08T12:26:45;4.53;;;1.80;;
14516;SDS011;7344;50.864;4.362;2023-08-08T12:29:10;3.80;;;1.80;;
14516;SDS011;7344;50.864;4.362;2023-08-08T12:31:37;3.17;;;1.70;;
14516;SDS011;7344;50.864;4.362;2023-08-08T12:34:03;4.35;;;2.20;;
14516;SDS011;7344;50.864;4.362;2023-08-08T12:36:29;5.65;;;2.00;;
14516;SDS011;7344;50.864;4.362;2023-08-08T12:38:55;4.20;;;1.75;;
14516;SDS011;7344;50.864;4.362;2023-08-08T12:41:22;4.22;;;1.80;;
14516;SDS011;7344;50.864;4.362;2023-08-08T12:43:49;3.80;;;1.98;;
14516;SDS011;7344;50.864;4.362;2023-08-08T12:46:15;6.20;;;1.38;;
14516;SDS011;7344;50.864;4.362;2023-08-08T12:48:41;4.38;;;1.98;;
14516;SDS011;7344;50.864;4.362;2023-08-08T12:51:08;2.10;;;1.50;;
14516;SDS011;7344;50.864;4.362;2023-08-08T12:53:34;2.05;;;1.73;;
14516;SDS011;7344;50.864;4.362;2023-08-08T12:56:00;4.55;;;1.90;;
14516;SDS011;7344;50.864;4.362;2023-08-08T12:58:25;2.40;;;1.30;;
14516;SDS011;7344;50.864;4.362;2023-08-08T13:00:51;2.75;;;1.80;;
14516;SDS011;7344;50.864;4.362;2023-08-08T13:03:17;2.92;;;2.15;;
14516;SDS011;7344;50.864;4.362;2023-08-08T13:05:43;4.85;;;1.90;;
14516;SDS011;7344;50.864;4.362;2023-08-08T13:08:08;2.65;;;1.83;;
14516;SDS011;7344;50.864;4.362;2023-08-08T13:10:35;1.55;;;1.45;;
14516;SDS011;7344;50.864;4.362;2023-08-08T13:13:01;2.95;;;1.40;;
14516;SDS011;7344;50.864;4.362;2023-08-08T13:15:26;2.20;;;1.65;;
14516;SDS011;7344;50.864;4.362;2023-08-08T13:17:52;2.08;;;1.63;;
14516;SDS011;7344;50.864;4.362;2023-08-08T13:20:17;2.42;;;1.98;;
14516;SDS011;7344;50.864;4.362;2023-08-08T13:22:43;2.28;;;1.77;;
14516;SDS011;7344;50.864;4.362;2023-08-08T13:25:09;1.80;;;1.70;;
14516;SDS011;7344;50.864;4.362;2023-08-08T13:27:35;1.83;;;1.52;;
14516;SDS011;7344;50.864;4.362;2023-08-08T13:30:01;3.63;;;1.92;;
14516;SDS011;7344;50.864;4.362;2023-08-08T13:32:27;3.55;;;1.77;;
14516;SDS011;7344;50.864;4.362;2023-08-08T13:34:53;3.47;;;1.73;;
14516;SDS011;7344;50.864;4.362;2023-08-08T13:37:18;4.28;;;2.05;;
14516;SDS011;7344;50.864;4.362;2023-08-08T13:39:44;2.95;;;1.70;;
14516;SDS011;7344;50.864;4.362;2023-08-08T13:42:10;2.70;;;1.60;;
14516;SDS011;7344;50.864;4.362;2023-08-08T13:44:35;2.05;;;1.80;;
14516;SDS011;7344;50.864;4.362;2023-08-08T13:47:01;2.63;;;1.70;;
14516;SDS011;7344;50.864;4.362;2023-08-08T13:49:27;3.35;;;1.65;;
14516;SDS011;7344;50.864;4.362;2023-08-08T13:51:53;5.25;;;2.10;;
14516;SDS011;7344;50.864;4.362;2023-08-08T13:54:19;1.48;;;1.33;;
14516;SDS011;7344;50.864;4.362;2023-08-08T13:56:45;4.10;;;1.73;;
14516;SDS011;7344;50.864;4.362;2023-08-08T13:59:11;4.55;;;1.60;;
14516;SDS011;7344;50.864;4.362;2023-08-08T14:01:36;2.85;;;1.75;;
14516;SDS011;7344;50.864;4.362;2023-08-08T14:04:02;1.67;;;1.50;;
14516;SDS011;7344;50.864;4.362;2023-08-08T14:06:28;3.42;;;1.90;;
14516;SDS011;7344;50.864;4.362;2023-08-08T14:08:55;1.98;;;1.58;;
14516;SDS011;7344;50.864;4.362;2023-08-08T14:11:21;1.88;;;1.45;;
14516;SDS011;7344;50.864;4.362;2023-08-08T14:13:47;1.70;;;1.60;;
14516;SDS011;7344;50.864;4.362;2023-08-08T14:16:12;2.90;;;1.60;;
14516;SDS011;7344;50.864;4.362;2023-08-08T14:18:38;1.50;;;1.38;;
14516;SDS011;7344;50.864;4.362;2023-08-08T14:21:03;1.60;;;1.50;;
14516;SDS011;7344;50.864;4.362;2023-08-08T14:23:30;1.30;;;1.20;;
14516;SDS011;7344;50.864;4.362;2023-08-08T14:25:56;2.15;;;1.20;;
14516;SDS011;7344;50.864;4.362;2023-08-08T14:28:22;2.20;;;1.50;;
14516;SDS011;7344;50.864;4.362;2023-08-08T14:30:47;2.97;;;1.40;;
14516;SDS011;7344;50.864;4.362;2023-08-08T14:33:14;4.13;;;1.50;;
14516;SDS011;7344;50.864;4.362;2023-08-08T14:35:40;1.85;;;1.40;;
14516;SDS011;7344;50.864;4.362;2023-08-08T14:38:06;1.70;;;1.60;;
14516;SDS011;7344;50.864;4.362;2023-08-08T14:40:32;2.53;;;1.50;;
14516;SDS011;7344;50.864;4.362;2023-08-08T14:42:59;2.70;;;1.52;;
14516;SDS011;7344;50.864;4.362;2023-08-08T14:45:26;2.47;;;1.30;;
14516;SDS011;7344;50.864;4.362;2023-08-08T14:47:51;1.45;;;1.35;;
14516;SDS011;7344;50.864;4.362;2023-08-08T14:50:17;3.65;;;1.60;;
14516;SDS011;7344;50.864;4.362;2023-08-08T14:52:43;1.50;;;1.40;;
14516;SDS011;7344;50.864;4.362;2023-08-08T14:55:08;1.45;;;1.20;;
14516;SDS011;7344;50.864;4.362;2023-08-08T14:57:34;2.03;;;1.40;;
14516;SDS011;7344;50.864;4.362;2023-08-08T15:00:00;1.95;;;1.30;;
14516;SDS011;7344;50.864;4.362;2023-08-08T15:02:26;1.38;;;1.27;;